Time;durP1;ratioP1;P1;durP2;ratioP2;P2;SDS_P1;SDS_P2;PMS_P1;PMS_P2;Temp;Humidity;BMP_temperature;BMP_pressure;BME280_temperature;BME280_humidity;BME280_pressure;Samples;Min_cycle;Max_cycle;Signal;HPM_P1;HPM_P2
2021/11/02 00:04:44;;;;;;;7.18;6.47;;;;;;;10.23;82.85;98740.34;10140151;29;20060;-74
2021/11/02 00:09:48;;;;;;;6.88;6.20;;;;;;;10.33;82.84;98750.03;10165257;29;20044;-72
2021/11/02 00:14:51;;;;;;;6.57;5.97;;;;;;;10.31;82.26;98741.38;10156480;29;20486;-73
2021/11/02 00:19:57;;;;;;;9.07;6.32;;;;;;;10.26;82.56;98734.72;10129447;29;20574;-73
2021/11/02 00:25:04;;;;;;;7.25;6.53;;;;;;;10.26;82.61;98742.69;10139726;29;20554;-73
2021/11/02 00:30:10;;;;;;;6.60;6.00;;;;;;;10.31;82.55;98738.72;10124112;29;20040;-73
2021/11/02 00:35:13;;;;;;;6.93;6.32;;;;;;;10.19;82.40;98736.38;10158566;29;20048;-74
2021/11/02 00:40:16;;;;;;;6.55;5.95;;;;;;;10.25;83.01;98732.22;10143600;29;20115;-75
2021/11/02 00:45:28;;;;;;;8.13;6.60;;;;;;;10.25;83.69;98738.38;10136074;29;20111;-74
2021/11/02 00:50:34;;;;;;;6.28;5.65;;;;;;;10.38;82.93;98735.31;10144205;29;20509;-74
2021/11/02 00:55:36;;;;;;;6.35;5.85;;;;;;;10.35;83.11;98729.47;10163227;29;20048;-71
2021/11/02 01:00:39;;;;;;;7.13;6.25;;;;;;;10.44;82.46;98721.34;10128371;29;20052;-73
2021/11/02 01:05:40;;;;;;;6.28;5.65;;;;;;;10.48;82.49;98727.22;10125084;29;20118;-72
2021/11/02 01:10:47;;;;;;;7.28;6.50;;;;;;;10.43;82.77;98719.72;10126239;29;20044;-72
2021/11/02 01:15:49;;;;;;;6.50;5.80;;;;;;;10.43;82.79;98714.41;10126551;29;20055;-73
2021/11/02 01:20:50;;;;;;;7.85;7.03;;;;;;;10.56;82.76;98715.75;10126703;29;20046;-73
2021/11/02 01:25:52;;;;;;;8.13;6.47;;;;;;;10.54;82.92;98715.91;10119384;29;20048;-75
2021/11/02 01:30:54;;;;;;;6.70;5.57;;;;;;;10.47;82.99;98714.06;10122893;29;20115;-72
2021/11/02 01:35:55;;;;;;;6.40;5.53;;;;;;;10.53;83.30;98714.25;10119784;29;20066;-72
2021/11/02 01:40:58;;;;;;;7.22;5.80;;;;;;;10.49;82.75;98712.91;10121979;29;20048;-73
2021/11/02 01:46:02;;;;;;;7.63;6.07;;;;;;;10.55;82.84;98728.25;10118754;29;20071;-73
2021/11/02 01:51:03;;;;;;;6.70;6.03;;;;;;;10.53;82.54;98722.22;10120949;29;20055;-73
2021/11/02 01:56:05;;;;;;;5.93;5.32;;;;;;;10.50;83.17;98722.56;10120880;29;20111;-72
2021/11/02 02:01:13;;;;;;;7.13;5.90;;;;;;;10.52;83.76;98719.72;10142954;29;20056;-73
2021/11/02 02:06:49;;;;;;;6.63;5.90;;;;;;;10.53;82.86;98719.56;10129263;29;20059;-73
2021/11/02 02:12:12;;;;;;;6.53;5.85;;;;;;;10.45;82.81;98724.88;10125009;29;20047;-75
2021/11/02 02:17:25;;;;;;;6.20;5.60;;;;;;;10.43;82.17;98727.69;10146219;29;20053;-73
2021/11/02 02:23:07;;;;;;;7.20;6.50;;;;;;;10.27;81.88;98717.78;10137213;29;20569;-73
2021/11/02 02:28:26;;;;;;;7.97;7.07;;;;;;;10.29;83.19;98716.78;10113003;29;20136;-71
2021/11/02 02:33:41;;;;;;;8.23;6.38;;;;;;;10.40;83.58;98708.53;10140363;29;20815;-72
2021/11/02 02:38:46;;;;;;;9.98;7.47;;;;;;;10.22;82.44;98711.25;10133618;29;20051;-72
2021/11/02 02:43:48;;;;;;;9.15;8.02;;;;;;;10.14;82.77;98704.06;10124164;29;20815;-72
2021/11/02 02:48:50;;;;;;;10.85;9.20;;;;;;;9.91;84.20;98704.63;10120315;29;20107;-72
2021/11/02 02:53:54;;;;;;;8.93;8.00;;;;;;;9.87;83.90;98700.59;10120049;29;20594;-72
2021/11/02 02:59:01;;;;;;;10.17;8.43;;;;;;;9.80;85.14;98704.88;10121246;29;20127;-72
2021/11/02 03:04:06;;;;;;;12.93;9.68;;;;;;;9.89;84.42;98703.09;10124411;29;20095;-72
2021/11/02 03:09:09;;;;;;;10.20;9.27;;;;;;;9.80;84.81;98707.53;10156322;29;24377;-74
2021/11/02 03:14:14;;;;;;;12.32;9.43;;;;;;;10.01;85.22;98703.69;10137902;29;20100;-72
2021/11/02 05:54:47;;;;;;;8.32;7.43;;;;;;;9.91;84.32;98678.03;10135202;29;20503;-72
2021/11/02 05:59:54;;;;;;;9.52;7.43;;;;;;;9.82;83.92;98684.31;10140293;29;20099;-73
2021/11/02 06:10:31;;;;;;;8.60;7.72;;;;;;;9.68;85.77;98682.22;10139234;29;20119;-73
2021/11/02 06:27:48;;;;;;;10.13;9.13;;;;;;;9.71;84.57;98689.88;10135358;29;20059;-73
2021/11/02 06:31:58;;;;;;;9.30;8.40;;;;;;;9.70;84.19;98699.69;10149779;29;20060;-75
2021/11/02 06:48:03;;;;;;;9.88;8.48;;;;;;;9.82;82.22;98710.88;10105941;29;20063;-75
2021/11/02 06:53:33;;;;;;;9.73;8.82;;;;;;;9.76;84.18;98716.81;10131604;29;20068;-73
2021/11/02 07:20:25;;;;;;;11.25;9.48;;;;;;;9.77;83.11;98734.41;10156245;29;20045;-70
2021/11/02 08:46:37;;;;;;;9.95;6.65;;;;;;;10.57;79.07;98755.50;10162116;29;20044;-72
2021/11/02 08:51:38;;;;;;;9.23;8.32;;;;;;;10.49;78.68;98744.00;10131904;29;20055;-73
2021/11/02 08:56:40;;;;;;;9.00;8.15;;;;;;;10.17;79.64;98740.16;10148027;29;20056;-74
2021/11/02 09:01:41;;;;;;;9.60;8.65;;;;;;;10.34;79.31;98749.09;10164268;29;20049;-73
2021/11/02 09:06:49;;;;;;;9.40;8.50;;;;;;;10.40;79.28;98751.09;10177829;29;20085;-73
2021/11/02 09:11:53;;;;;;;8.77;7.90;;;;;;;10.56;79.38;98743.19;10146610;29;20139;-73
2021/11/02 09:16:55;;;;;;;9.37;8.43;;;;;;;10.57;78.05;98742.22;10133409;29;20143;-73
2021/11/02 09:21:56;;;;;;;10.55;9.68;;;;;;;10.69;79.59;98745.41;10139188;29;20368;-73
2021/11/02 09:26:59;;;;;;;8.82;8.02;;;;;;;10.87;77.96;98752.44;10160297;29;20060;-73
2021/11/02 09:32:01;;;;;;;9.63;8.73;;;;;;;10.90;77.08;98739.66;10136461;29;20095;-71
2021/11/02 09:37:18;;;;;;;8.85;8.02;;;;;;;11.06;75.95;98746.00;10136308;29;20051;-71
2021/11/02 09:42:45;;;;;;;9.55;8.75;;;;;;;11.12;76.20;98740.88;10115112;29;20060;-71
2021/11/02 09:48:21;;;;;;;9.25;8.30;;;;;;;13.13;70.04;98739.25;10118037;29;20064;-72
2021/11/02 09:53:56;;;;;;;10.80;8.07;;;;;;;15.12;61.90;98724.47;10111578;29;20163;-71
2021/11/02 09:59:01;;;;;;;7.65;6.82;;;;;;;16.04;58.07;98727.34;10129100;29;20422;-72
2021/11/02 10:04:23;;;;;;;5.55;5.15;;;;;;;16.84;56.84;98705.44;10126406;29;20067;-72
2021/11/02 10:09:50;;;;;;;6.25;5.75;;;;;;;17.02;53.82;98711.09;10112071;29;20653;-73
2021/11/02 10:15:02;;;;;;;6.38;4.65;;;;;;;18.41;51.67;98716.69;10127359;29;20050;-70
2021/11/02 10:20:38;;;;;;;5.60;4.97;;;;;;;20.54;46.05;98699.19;10129522;29;20598;-71
2021/11/02 10:25:53;;;;;;;5.88;5.38;;;;;;;18.64;47.89;98691.94;10126914;29;20104;-72
2021/11/02 10:30:59;;;;;;;8.02;7.20;;;;;;;17.48;51.50;98696.91;10106563;29;20082;-73
2021/11/02 10:36:17;;;;;;;4.53;3.83;;;;;;;15.98;55.75;98702.13;10128173;29;20056;-72
2021/11/02 10:41:23;;;;;;;4.68;4.18;;;;;;;15.82;56.77;98694.38;10114023;29;20499;-72
2021/11/02 10:46:31;;;;;;;4.72;4.25;;;;;;;15.42;57.11;98697.56;10115217;29;20123;-71
2021/11/02 10:51:42;;;;;;;5.50;3.58;;;;;;;15.75;57.36;98691.63;10128303;29;20140;-73
2021/11/02 10:57:15;;;;;;;5.70;5.30;;;;;;;18.01;50.55;98674.56;10126549;29;23043;-72
2021/11/02 11:02:27;;;;;;;5.22;3.88;;;;;;;20.63;42.74;98671.63;10128797;29;20080;-71
2021/11/02 11:07:36;;;;;;;6.18;2.88;;;;;;;21.49;39.75;98670.63;10127763;29;20084;-68
2021/11/02 11:12:59;;;;;;;6.45;3.50;;;;;;;18.33;47.65;98665.72;10126363;29;20168;-71
2021/11/02 11:18:09;;;;;;;4.43;2.90;;;;;;;15.88;52.13;98686.41;10110707;29;20055;-75
2021/11/02 11:23:11;;;;;;;4.40;2.38;;;;;;;14.65;56.89;98674.91;10134573;29;20203;-74
2021/11/02 11:28:14;;;;;;;3.72;2.25;;;;;;;13.99;59.95;98675.72;10110830;29;20139;-72
2021/11/02 11:33:18;;;;;;;4.95;2.60;;;;;;;13.77;61.29;98674.78;10130876;29;20499;-74
2021/11/02 11:38:20;;;;;;;;;;;;;;;13.21;61.14;98673.22;10151435;29;20048;-73
2021/11/02 11:43:27;;;;;;;3.25;1.25;;;;;;;12.87;62.38;98666.44;10166156;29;19931;-74
2021/11/02 11:48:29;;;;;;;4.47;1.67;;;;;;;12.50;65.35;98669.84;10165096;28;20048;-73
2021/11/02 11:53:35;;;;;;;4.38;1.58;;;;;;;12.21;69.74;98676.63;10119738;29;20060;-74
2021/11/02 11:58:54;;;;;;;3.15;1.48;;;;;;;11.82;73.25;98669.41;10158129;29;20075;-74
2021/11/02 12:04:17;;;;;;;4.18;1.45;;;;;;;11.63;74.51;98668.78;10134930;29;20503;-72
2021/11/02 12:09:21;;;;;;;2.17;1.90;;;;;;;11.73;75.13;98673.09;10105484;29;20143;-73
2021/11/02 12:14:27;;;;;;;2.80;2.07;;;;;;;11.87;76.39;98668.88;10129709;29;20135;-73
2021/11/02 12:19:40;;;;;;;5.28;2.28;;;;;;;11.59;76.16;98659.44;10130756;29;20300;-73
2021/11/02 12:25:06;;;;;;;4.25;2.20;;;;;;;11.70;76.67;98665.44;10128348;29;20269;-73
2021/11/02 12:30:13;;;;;;;3.28;2.92;;;;;;;11.38;77.90;98659.97;10125823;29;20052;-73
2021/11/02 12:35:36;;;;;;;4.40;3.13;;;;;;;11.41;78.92;98669.44;10118638;29;20080;-72
2021/11/02 12:40:41;;;;;;;6.03;3.80;;;;;;;11.36;79.90;98669.94;10099525;29;20824;-72
2021/11/02 12:45:54;;;;;;;7.60;3.40;;;;;;;11.06;80.56;98666.13;10130645;29;20040;-73
2021/11/02 12:50:57;;;;;;;3.93;3.53;;;;;;;11.20;80.41;98662.81;10118481;29;20135;-73
2021/11/02 12:56:13;;;;;;;4.68;3.72;;;;;;;11.20;79.84;98657.47;10109282;29;20685;-73
2021/11/02 13:01:36;;;;;;;4.03;3.70;;;;;;;11.21;79.66;98659.13;10113368;29;20491;-72
2021/11/02 13:06:48;;;;;;;3.85;3.42;;;;;;;11.07;79.92;98662.47;10128652;29;20044;-74
2021/11/02 13:12:00;;;;;;;3.08;2.28;;;;;;;10.90;77.70;98673.09;10113287;29;20115;-73
2021/11/02 13:17:04;;;;;;;3.60;2.30;;;;;;;10.78;78.11;98661.09;10120035;29;20062;-73
2021/11/02 13:22:15;;;;;;;1.38;1.13;;;;;;;10.75;77.46;98664.91;10130687;29;20048;-73
2021/11/02 13:27:16;;;;;;;1.60;1.00;;;;;;;10.48;78.03;98660.69;10132844;29;20052;-73
2021/11/02 13:32:18;;;;;;;2.70;1.50;;;;;;;10.24;79.88;98670.22;10133173;29;20048;-73
2021/11/02 13:37:24;;;;;;;3.10;1.33;;;;;;;10.46;81.84;98670.66;10112811;29;20067;-74
2021/11/02 13:42:50;;;;;;;1.40;0.68;;;;;;;10.30;79.78;98665.25;10157571;29;20363;-72
2021/11/02 13:47:52;;;;;;;;;;;;;;;10.29;79.65;98668.91;10115615;29;20514;-73
2021/11/02 13:52:54;;;;;;;1.65;1.02;;;;;;;10.25;80.00;98669.25;10133395;29;20467;-72
2021/11/02 13:57:55;;;;;;;1.85;1.10;;;;;;;10.24;81.07;98662.25;10130506;29;20154;-73
2021/11/02 14:03:02;;;;;;;3.00;1.40;;;;;;;10.20;81.63;98668.88;10101445;29;20052;-73
2021/11/02 14:08:05;;;;;;;2.08;1.08;;;;;;;10.36;81.65;98675.31;10112625;29;20406;-73
2021/11/02 14:13:06;;;;;;;1.55;0.88;;;;;;;10.27;81.15;98666.41;10103048;29;20162;-72
2021/11/02 14:18:10;;;;;;;3.28;1.25;;;;;;;10.28;82.12;98673.38;10115988;29;20125;-70
2021/11/02 14:23:30;;;;;;;1.00;0.77;;;;;;;10.15;81.73;98680.97;10134379;29;20059;-75
2021/11/02 14:28:34;;;;;;;1.75;1.00;;;;;;;10.02;83.58;98676.09;10152698;29;20076;-73
2021/11/02 14:33:48;;;;;;;1.42;0.63;;;;;;;10.07;83.69;98687.09;10175661;29;20084;-73
2021/11/02 14:38:51;;;;;;;1.90;0.70;;;;;;;10.05;83.71;98687.25;10130411;29;20067;-74
2021/11/02 14:44:19;;;;;;;1.15;0.40;;;;;;;9.95;83.35;98683.03;10114660;29;20542;-73
2021/11/02 14:49:30;;;;;;;2.40;0.75;;;;;;;10.13;84.20;98689.09;10128734;29;20052;-73
2021/11/02 14:54:41;;;;;;;1.38;0.40;;;;;;;10.21;82.56;98680.34;10130257;29;20139;-71
2021/11/02 14:59:57;;;;;;;1.15;0.50;;;;;;;10.03;81.93;98686.59;10106958;29;20064;-73
2021/11/02 15:05:04;;;;;;;1.95;0.40;;;;;;;9.81;83.06;98679.97;10130909;29;20542;-72
2021/11/02 15:10:08;;;;;;;0.98;0.45;;;;;;;9.83;82.98;98691.31;10128522;29;21880;-73
2021/11/02 15:15:09;;;;;;;1.38;0.50;;;;;;;9.82;82.97;98692.28;10134156;29;20107;-71
2021/11/02 15:20:11;;;;;;;2.55;0.70;;;;;;;9.70;83.11;98693.53;10142024;29;20052;-73
2021/11/02 15:25:14;;;;;;;0.50;0.20;;;;;;;9.68;83.77;98703.47;10138517;29;20048;-71
2021/11/02 15:30:16;;;;;;;1.67;0.63;;;;;;;9.67;85.13;98696.50;10116381;29;20108;-71
2021/11/02 15:35:22;;;;;;;2.08;1.17;;;;;;;9.68;85.63;98703.47;10134518;29;20414;-74
2021/11/02 15:40:36;;;;;;;0.90;0.60;;;;;;;9.72;85.86;98699.53;10142496;29;20148;-71
2021/11/02 15:45:39;;;;;;;1.75;0.50;;;;;;;9.78;84.31;98706.03;10130226;29;20440;-70
2021/11/02 15:50:46;;;;;;;1.42;0.68;;;;;;;9.50;85.45;98711.47;10133688;29;20051;-74
2021/11/02 15:55:48;;;;;;;2.50;0.50;;;;;;;9.62;86.48;98709.41;10146524;29;20123;-73
2021/11/02 16:00:49;;;;;;;2.25;0.50;;;;;;;9.67;85.56;98710.63;10136276;29;20052;-75
2021/11/02 16:05:51;;;;;;;1.95;0.90;;;;;;;9.60;85.99;98719.38;10142713;29;20048;-75
2021/11/02 16:11:07;;;;;;;5.85;1.58;;;;;;;9.49;86.87;98715.97;10153625;29;20128;-73
2021/11/02 16:16:08;;;;;;;2.38;0.85;;;;;;;9.39;87.32;98715.22;10158258;29;20056;-75
2021/11/02 16:21:15;;;;;;;1.33;0.90;;;;;;;9.44;87.15;98728.03;10142671;29;20055;-74
2021/11/02 16:26:18;;;;;;;1.65;1.10;;;;;;;9.38;87.35;98725.00;10152397;29;20070;-73
2021/11/02 16:31:30;;;;;;;1.30;1.08;;;;;;;9.36;87.78;98718.19;10153977;29;20044;-73
2021/11/02 16:36:38;;;;;;;2.33;1.00;;;;;;;9.54;86.69;98732.25;10140030;29;20048;-74
2021/11/02 16:41:47;;;;;;;2.22;1.10;;;;;;;9.52;87.05;98736.09;10163449;29;20729;-73
2021/11/02 16:46:51;;;;;;;2.22;1.30;;;;;;;9.71;86.90;98741.22;10155059;29;20123;-73
2021/11/02 16:51:59;;;;;;;3.33;1.30;;;;;;;9.85;86.11;98737.16;10143958;29;20048;-74
2021/11/02 16:57:11;;;;;;;1.48;1.05;;;;;;;9.98;86.14;98744.69;10160748;29;20143;-74
2021/11/02 17:02:18;;;;;;;1.73;1.27;;;;;;;9.87;85.19;98751.09;10134850;29;20122;-73
2021/11/02 17:07:20;;;;;;;1.90;1.23;;;;;;;9.85;84.70;98752.28;10186152;29;20052;-75
2021/11/02 17:12:22;;;;;;;2.38;1.35;;;;;;;9.87;85.53;98756.41;10189570;29;20055;-73
2021/11/02 17:17:23;;;;;;;2.15;1.25;;;;;;;9.86;83.97;98748.59;10145135;29;20079;-72
2021/11/02 17:22:25;;;;;;;4.07;1.23;;;;;;;9.82;84.76;98748.09;10155962;29;20071;-73
2021/11/02 17:27:27;;;;;;;1.58;1.20;;;;;;;9.78;84.58;98752.03;10137695;29;20079;-72
2021/11/02 17:32:30;;;;;;;5.03;4.53;;;;;;;9.81;85.42;98761.53;10140556;29;20167;-73
2021/11/02 17:37:32;;;;;;;3.35;3.00;;;;;;;9.83;84.90;98763.06;10156709;29;20071;-72
2021/11/02 17:42:34;;;;;;;3.55;2.75;;;;;;;9.87;84.65;98764.38;10137096;29;20116;-71
2021/11/02 17:47:36;;;;;;;2.20;1.55;;;;;;;9.94;85.48;98777.91;10142418;29;20490;-72
2021/11/02 17:52:37;;;;;;;2.85;2.17;;;;;;;9.97;85.56;98766.09;10155322;29;20455;-72
2021/11/02 17:57:43;;;;;;;2.75;2.17;;;;;;;10.03;84.48;98787.59;10133385;29;20056;-72
2021/11/02 18:02:48;;;;;;;3.35;2.40;;;;;;;9.89;85.28;98783.69;10170957;29;20434;-72
2021/11/02 18:07:51;;;;;;;3.25;2.80;;;;;;;9.75;86.24;98786.91;10135872;29;20052;-72
2021/11/02 18:12:53;;;;;;;3.38;2.55;;;;;;;9.84;86.38;98791.28;10122492;29;20103;-74
2021/11/02 18:17:56;;;;;;;3.42;3.13;;;;;;;9.81;86.72;98788.09;10150090;29;20531;-72
2021/11/02 18:22:58;;;;;;;3.97;2.60;;;;;;;9.80;86.71;98797.06;10128892;29;20110;-72
2021/11/02 18:27:59;;;;;;;5.35;2.80;;;;;;;9.82;86.86;98792.44;10138390;29;20112;-71
2021/11/02 18:33:02;;;;;;;3.42;3.13;;;;;;;9.96;87.28;98796.38;10133049;29;20103;-71
2021/11/02 18:38:04;;;;;;;3.63;2.80;;;;;;;10.02;87.30;98793.06;10170759;29;20050;-75
2021/11/02 18:43:06;;;;;;;3.65;2.50;;;;;;;9.95;85.85;98789.38;10142219;29;20519;-72
2021/11/02 18:48:08;;;;;;;3.83;2.47;;;;;;;9.99;86.54;98793.38;10159249;29;20080;-73
2021/11/02 18:53:14;;;;;;;4.60;2.92;;;;;;;9.87;86.60;98798.13;10151981;28;20079;-72
2021/11/02 18:58:15;;;;;;;3.25;2.75;;;;;;;9.68;85.49;98815.91;10151219;29;20055;-72
2021/11/02 19:03:17;;;;;;;2.85;2.65;;;;;;;9.70;87.37;98810.44;10144065;29;20460;-72
2021/11/02 19:08:20;;;;;;;4.07;2.80;;;;;;;9.74;85.71;98809.13;10103783;29;20048;-73
2021/11/02 19:13:21;;;;;;;2.92;2.42;;;;;;;9.65;86.00;98810.91;10130581;29;20486;-72
2021/11/02 19:18:22;;;;;;;4.07;2.45;;;;;;;9.72;86.10;98816.44;10140096;29;20059;-71
2021/11/02 19:23:24;;;;;;;4.65;3.15;;;;;;;9.78;86.42;98815.00;10114880;29;20513;-73
2021/11/02 19:28:27;;;;;;;2.67;2.42;;;;;;;9.88;85.42;98813.91;10139841;29;20123;-71
2021/11/02 19:33:28;;;;;;;2.33;2.05;;;;;;;9.98;85.32;98811.13;10136581;29;20127;-73
2021/11/02 19:38:30;;;;;;;3.33;2.92;;;;;;;9.81;84.90;98809.38;10167090;29;20519;-72
2021/11/02 19:43:33;;;;;;;4.40;2.20;;;;;;;9.73;85.42;98807.47;10147608;29;20523;-72
2021/11/02 19:48:38;;;;;;;3.17;2.90;;;;;;;9.65;85.73;98820.69;10152110;29;20059;-73
2021/11/02 19:53:41;;;;;;;4.30;2.40;;;;;;;9.63;85.91;98809.38;10177609;29;20052;-75
2021/11/02 19:58:45;;;;;;;3.10;2.15;;;;;;;9.63;85.41;98817.34;10136411;29;20185;-73
2021/11/02 20:03:49;;;;;;;2.90;2.57;;;;;;;9.50;86.02;98821.25;10134935;29;20048;-72
2021/11/02 20:08:54;;;;;;;3.90;2.80;;;;;;;9.51;85.80;98825.53;10122268;29;20140;-72
2021/11/02 20:14:00;;;;;;;4.30;2.92;;;;;;;9.46;86.29;98834.97;10143166;29;20087;-72
2021/11/02 20:19:02;;;;;;;3.67;2.17;;;;;;;9.37;84.80;98839.38;10116829;29;20063;-73
2021/11/02 20:24:03;;;;;;;3.35;2.65;;;;;;;9.30;85.50;98855.03;10129595;29;20067;-72
2021/11/02 20:29:05;;;;;;;3.17;2.55;;;;;;;9.42;85.30;98849.53;10127045;29;20426;-73
2021/11/02 20:34:07;;;;;;;3.40;2.45;;;;;;;9.55;85.92;98856.13;10142055;29;20123;-72
2021/11/02 20:39:28;;;;;;;3.92;2.38;;;;;;;9.63;85.37;98859.88;10125825;29;20059;-73
2021/11/02 20:44:32;;;;;;;3.05;2.35;;;;;;;9.66;85.29;98864.88;10147068;29;20100;-73
2021/11/02 20:49:36;;;;;;;3.45;2.55;;;;;;;9.52;85.11;98858.28;10151196;29;20045;-72
2021/11/02 20:54:40;;;;;;;3.00;2.37;;;;;;;9.45;85.14;98865.16;10138901;29;20712;-72
2021/11/02 20:59:42;;;;;;;3.75;2.90;;;;;;;9.38;85.72;98862.25;10104319;23;20495;-67
2021/11/02 21:04:44;;;;;;;3.35;3.05;;;;;;;9.39;86.29;98869.25;10115023;29;20067;-66
2021/11/02 21:09:55;;;;;;;3.33;2.72;;;;;;;9.23;86.10;98885.00;10075450;29;20045;-67
2021/11/02 21:14:57;;;;;;;3.45;2.72;;;;;;;9.20;85.98;98873.69;10062875;29;20044;-67
2021/11/02 21:20:05;;;;;;;3.38;2.28;;;;;;;9.11;86.22;98876.41;10063464;29;20048;-68
2021/11/02 21:25:07;;;;;;;3.35;3.05;;;;;;;9.06;86.91;98874.19;10057671;29;20072;-67
2021/11/02 21:30:09;;;;;;;2.58;2.38;;;;;;;9.10;87.11;98870.25;10066150;29;20132;-67
2021/11/02 21:35:11;;;;;;;2.72;2.40;;;;;;;9.11;85.60;98866.63;10058604;29;20081;-65
2021/11/02 21:40:15;;;;;;;2.85;2.53;;;;;;;8.95;86.19;98855.81;10063554;29;20069;-67
2021/11/02 21:45:23;;;;;;;3.97;2.60;;;;;;;9.00;86.56;98858.84;10052592;29;20056;-67
2021/11/02 21:50:27;;;;;;;4.50;2.72;;;;;;;8.95;86.70;98845.22;10054325;29;20049;-67
2021/11/02 21:55:30;;;;;;;;;;;;;;;9.02;86.12;98846.25;10048684;29;20053;-68
2021/11/02 22:00:31;;;;;;;4.57;2.75;;;;;;;9.16;86.35;98856.38;10053137;29;20458;-68
2021/11/02 22:05:34;;;;;;;4.90;2.80;;;;;;;9.11;86.23;98855.16;10057571;29;20060;-67
2021/11/02 22:10:35;;;;;;;5.22;3.58;;;;;;;9.20;85.23;98835.69;10057719;29;20504;-66
2021/11/02 22:15:37;;;;;;;7.40;4.50;;;;;;;9.30;85.18;98835.63;10052020;29;20053;-67
2021/11/02 22:20:39;;;;;;;7.35;4.25;;;;;;;9.25;84.57;98836.09;10054385;29;20045;-68
2021/11/02 22:25:40;;;;;;;5.65;4.93;;;;;;;9.20;84.48;98823.25;10050962;29;20069;-68
2021/11/02 22:30:43;;;;;;;3.90;3.17;;;;;;;9.25;84.53;98822.81;10059533;29;20118;-70
2021/11/02 22:35:45;;;;;;;2.63;2.40;;;;;;;9.35;83.62;98825.38;10060430;29;20417;-68
2021/11/02 22:40:47;;;;;;;3.17;2.40;;;;;;;9.37;84.41;98813.63;10057745;29;20101;-67
2021/11/02 22:45:49;;;;;;;3.88;3.05;;;;;;;9.37;83.19;98818.13;10049691;29;20076;-64
2021/11/02 22:50:51;;;;;;;4.63;3.13;;;;;;;9.30;83.30;98817.88;10047210;29;20085;-65
2021/11/02 22:55:53;;;;;;;3.95;3.00;;;;;;;9.40;84.11;98811.66;10055255;29;20105;-68
2021/11/02 23:00:57;;;;;;;5.03;4.28;;;;;;;9.51;83.92;98804.28;10053825;29;20200;-64
2021/11/02 23:05:59;;;;;;;3.50;3.20;;;;;;;9.59;84.04;98792.91;10045033;29;20528;-68
2021/11/02 23:11:01;;;;;;;3.38;3.08;;;;;;;9.59;83.54;98795.56;10053432;29;20049;-67
2021/11/02 23:16:02;;;;;;;3.75;3.22;;;;;;;9.61;83.92;98779.47;10050363;29;20061;-67
2021/11/02 23:21:04;;;;;;;4.93;3.40;;;;;;;9.59;83.28;98774.31;10048114;29;20065;-67
2021/11/02 23:26:11;;;;;;;4.00;3.38;;;;;;;9.63;83.34;98782.81;10049483;29;20064;-67
2021/11/02 23:31:13;;;;;;;3.60;3.20;;;;;;;9.63;83.40;98769.53;10046250;29;20633;-68
2021/11/02 23:36:17;;;;;;;3.58;3.28;;;;;;;9.66;82.51;98785.16;10045170;29;20049;-66
2021/11/02 23:41:20;;;;;;;4.25;3.65;;;;;;;9.63;82.31;98796.94;10050422;29;20048;-67
2021/11/02 23:46:22;;;;;;;4.25;3.28;;;;;;;9.66;81.09;98827.69;10050728;29;20504;-69
2021/11/02 23:51:25;;;;;;;3.65;3.28;;;;;;;9.58;82.16;98832.91;10048258;29;20061;-67
2021/11/02 23:56:27;;;;;;;4.60;4.13;;;;;;;9.57;82.21;98831.25;10053113;29;20173;-63
